createdAt,value
2018-02-08T00:03:03.589Z,50.35
2018-02-08T00:07:33.359Z,49.17
2018-02-08T00:09:35.649Z,51.80
2018-02-08T00:17:11.437Z,49.75
2018-02-08T00:19:20.887Z,49.83
2018-02-08T00:21:22.180Z,57.58
2018-02-08T00:23:33.742Z,75.62
2018-02-08T00:25:35.088Z,47.90
2018-02-08T00:28:02.894Z,59.03
2018-02-08T00:32:32.869Z,60.27
2018-02-08T00:37:33.976Z,49.53
2018-02-08T00:42:15.567Z,57.25
2018-02-08T00:44:16.718Z,54.92
2018-02-08T00:46:17.802Z,58.58
2018-02-08T00:48:19.244Z,43.08
2018-02-08T00:50:32.487Z,62.60
2018-02-08T00:52:34.197Z,65.25
2018-02-08T00:57:29.166Z,57.20
2018-02-08T00:59:33.576Z,57.85
2018-02-08T01:01:34.647Z,65.12
2018-02-08T01:06:38.137Z,49.33
2018-02-08T01:20:54.903Z,50.90
2018-02-08T01:25:50.541Z,57.40
2018-02-08T01:30:28.409Z,55.50
2018-02-08T01:32:31.020Z,55.90
2018-02-08T01:34:32.628Z,44.75
2018-02-08T01:39:01.346Z,48.72
2018-02-08T01:41:02.334Z,53.63
2018-02-08T01:43:03.444Z,48.15
2018-02-08T01:45:04.464Z,50.67
2018-02-08T01:47:05.570Z,53.30
2018-02-08T01:51:45.057Z,58.13
2018-02-08T02:12:23.931Z,50.10
2018-02-08T02:14:35.366Z,57.85
2018-02-08T02:16:36.924Z,48.17
2018-02-08T02:18:37.986Z,47.17
2018-02-08T02:23:16.104Z,54.75
2018-02-08T02:32:54.387Z,52.33
2018-02-08T02:34:55.390Z,50.30
2018-02-08T02:39:25.057Z,50.63
2018-02-08T02:41:27.221Z,48.25
2018-02-08T02:43:38.771Z,50.00
2018-02-08T02:48:19.420Z,59.65
2018-02-08T02:50:24.588Z,65.07
2018-02-08T02:52:28.403Z,56.05
2018-02-08T02:59:44.720Z,52.65
2018-02-08T03:18:49.183Z,66.45
2018-02-08T03:21:07.480Z,55.00
2018-02-08T03:23:08.500Z,50.25
2018-02-08T03:27:46.595Z,51.90
2018-02-08T03:32:38.748Z,48.72
2018-02-08T03:34:39.739Z,58.15
2018-02-08T03:36:41.782Z,64.20
2018-02-08T03:38:42.953Z,58.17
2018-02-08T03:40:43.971Z,58.40
2018-02-08T03:42:45.034Z,49.65
2018-02-08T03:47:24.408Z,60.78
2018-02-08T03:49:25.387Z,58.20
2018-02-08T03:59:27.141Z,51.72
2018-02-08T04:01:28.416Z,62.30
2018-02-08T04:03:51.629Z,53.10
2018-02-08T04:05:52.639Z,49.13
2018-02-08T04:15:47.351Z,50.40
2018-02-08T04:28:32.821Z,63.47
2018-02-08T04:30:44.247Z,62.25
2018-02-08T04:32:45.300Z,46.55
2018-02-08T04:34:46.273Z,46.33
2018-02-08T04:36:47.308Z,45.97
2018-02-08T04:39:00.614Z,55.15
2018-02-08T04:43:46.456Z,49.75
2018-02-08T04:45:59.802Z,70.90
2018-02-08T04:48:06.670Z,49.03
2018-02-08T04:50:08.441Z,60.90
2018-02-08T04:52:09.412Z,53.40
2018-02-08T04:54:10.372Z,54.60
2018-02-08T04:56:32.922Z,55.07
2018-02-08T04:58:33.889Z,52.40
2018-02-08T05:05:51.261Z,64.68
2018-02-08T05:07:52.372Z,57.33
2018-02-08T05:15:07.010Z,57.90
2018-02-08T05:19:44.521Z,52.65
2018-02-08T05:29:36.287Z,52.62
2018-02-08T05:31:57.450Z,62.35
2018-02-08T05:34:24.778Z,48.13
2018-02-08T05:39:07.417Z,65.65
2018-02-08T05:43:46.552Z,55.25
2018-02-08T05:45:55.212Z,60.10
2018-02-08T05:47:56.176Z,73.43
2018-02-08T05:52:34.556Z,66.60
2018-02-08T06:00:03.367Z,51.37
2018-02-08T06:02:04.401Z,53.70
2018-02-08T06:04:05.487Z,51.45
2018-02-08T06:06:06.478Z,53.33
2018-02-08T06:13:23.775Z,48.92
2018-02-08T06:15:24.757Z,56.63
2018-02-08T06:17:32.530Z,55.27
2018-02-08T06:19:34.151Z,50.65
2018-02-08T06:21:57.263Z,61.30
2018-02-08T06:23:58.283Z,58.97
2018-02-08T06:28:27.206Z,65.05
2018-02-08T06:30:28.175Z,63.35
2018-02-08T06:32:29.204Z,52.20
2018-02-08T06:36:58.517Z,638.37
2018-02-08T06:38:59.575Z,732.78
2018-02-08T06:41:00.612Z,105.50
2018-02-08T06:43:01.611Z,60.50
2018-02-08T06:45:02.596Z,59.60
2018-02-08T06:47:04.367Z,52.53
2018-02-08T06:49:05.332Z,55.33
2018-02-08T06:51:06.380Z,50.93
2018-02-08T06:53:07.381Z,68.20
2018-02-08T06:55:08.354Z,64.10
2018-02-08T06:57:16.979Z,55.07
2018-02-08T06:59:17.960Z,62.45
2018-02-08T07:03:47.874Z,62.92
2018-02-08T07:05:49.613Z,68.78
2018-02-08T07:10:16.737Z,68.18
2018-02-08T07:12:42.732Z,69.95
2018-02-08T07:14:43.902Z,59.50
2018-02-08T07:16:45.645Z,75.87
2018-02-08T07:18:55.092Z,80.65
2018-02-08T07:23:45.030Z,72.12
2018-02-08T07:30:38.929Z,70.80
2018-02-08T07:32:39.944Z,67.85
2018-02-08T07:34:40.984Z,62.58
2018-02-08T07:36:48.773Z,81.07
2018-02-08T07:38:58.130Z,76.22
2018-02-08T07:40:59.133Z,69.78
2018-02-08T07:45:20.718Z,61.05
2018-02-08T07:49:58.262Z,59.17
2018-02-08T07:51:59.275Z,67.15
2018-02-08T07:56:37.286Z,67.00
2018-02-08T07:58:46.895Z,58.95
2018-02-08T08:00:47.844Z,56.97
2018-02-08T08:02:50.299Z,55.37
2018-02-08T08:04:51.393Z,59.90
2018-02-08T08:07:08.691Z,64.72
2018-02-08T08:09:11.371Z,65.22
2018-02-08T08:11:19.604Z,63.42
2018-02-08T08:18:51.605Z,67.50
2018-02-08T08:28:36.372Z,72.47
2018-02-08T08:30:37.375Z,71.65
2018-02-08T08:32:38.425Z,78.95
2018-02-08T08:37:18.105Z,84.07
2018-02-08T08:57:03.930Z,81.57
2018-02-08T09:01:44.292Z,67.72
2018-02-08T09:14:15.628Z,70.40
2018-02-08T09:16:16.661Z,70.27
2018-02-08T09:20:54.211Z,67.30
2018-02-08T09:22:55.320Z,78.57
2018-02-08T09:24:56.316Z,72.15
2018-02-08T09:26:57.395Z,80.72
2018-02-08T09:29:06.906Z,74.70
2018-02-08T09:31:07.958Z,71.57
2018-02-08T09:33:09.081Z,66.28
2018-02-08T09:35:10.175Z,83.00
2018-02-08T09:37:11.615Z,67.47
2018-02-08T09:39:12.615Z,79.23
2018-02-08T09:41:20.896Z,67.63
2018-02-08T09:43:22.340Z,65.80
2018-02-08T09:45:23.426Z,63.25
2018-02-08T09:50:01.195Z,61.50
2018-02-08T09:52:05.977Z,63.83
2018-02-08T09:54:17.573Z,66.90
2018-02-08T09:56:18.586Z,61.75
2018-02-08T09:58:19.603Z,70.70
2018-02-08T10:00:20.592Z,66.22
2018-02-08T10:02:22.368Z,72.13
2018-02-08T10:09:37.630Z,79.65
2018-02-08T10:11:38.944Z,59.30
2018-02-08T10:16:18.193Z,64.27
2018-02-08T10:26:12.651Z,74.43
2018-02-08T10:28:13.674Z,63.13
2018-02-08T10:30:14.621Z,71.00
2018-02-08T10:32:15.615Z,63.63
2018-02-08T10:34:23.140Z,75.63
2018-02-08T10:36:24.091Z,68.63
2018-02-08T10:38:25.789Z,71.83
2018-02-08T10:40:26.787Z,66.97
2018-02-08T10:42:27.738Z,73.87
2018-02-08T10:44:31.919Z,82.73
2018-02-08T10:46:33.664Z,71.63
2018-02-08T10:48:34.977Z,70.43
2018-02-08T10:50:36.028Z,75.73
2018-02-08T10:52:36.995Z,78.47
2018-02-08T10:54:38.543Z,72.43
2018-02-08T10:56:39.480Z,70.27
2018-02-08T10:58:40.748Z,77.97
2018-02-08T11:00:51.953Z,68.30
2018-02-08T11:05:21.149Z,73.00
2018-02-08T11:07:22.245Z,73.53
2018-02-08T11:09:23.215Z,74.00
2018-02-08T11:11:24.173Z,65.93
2018-02-08T11:13:25.167Z,80.07
2018-02-08T11:15:50.452Z,82.30
2018-02-08T11:17:51.518Z,70.53
2018-02-08T11:19:52.500Z,72.47
2018-02-08T11:21:53.532Z,73.93
2018-02-08T11:23:54.500Z,73.30
2018-02-08T11:26:20.641Z,73.15
2018-02-08T11:28:21.599Z,69.20
2018-02-08T11:32:59.932Z,67.83
2018-02-08T11:37:30.704Z,69.93
2018-02-08T11:41:59.492Z,78.75
2018-02-08T11:46:29.405Z,85.20
2018-02-08T11:51:02.824Z,76.90
2018-02-08T11:53:03.792Z,83.33
2018-02-08T11:55:05.381Z,85.53
2018-02-08T11:57:30.426Z,83.97
2018-02-08T11:59:31.436Z,82.47
2018-02-08T12:01:32.426Z,85.43
2018-02-08T12:06:01.291Z,76.70
2018-02-08T12:08:02.280Z,79.73
2018-02-08T12:10:03.324Z,80.57
2018-02-08T12:12:04.379Z,86.65
2018-02-08T12:14:06.048Z,85.57
2018-02-08T12:16:07.022Z,81.30
2018-02-08T12:18:08.039Z,82.80
2018-02-08T12:20:09.007Z,73.37
2018-02-08T12:22:10.754Z,80.93
2018-02-08T12:24:11.791Z,87.78
2018-02-08T12:26:12.805Z,75.03
2018-02-08T12:28:13.933Z,82.63
2018-02-08T12:30:32.878Z,75.65
2018-02-08T12:32:33.979Z,87.50
2018-02-08T12:34:35.630Z,73.83
2018-02-08T12:36:36.616Z,72.20
2018-02-08T12:41:15.025Z,79.53
2018-02-08T12:43:16.931Z,88.67
2018-02-08T12:47:46.432Z,81.17
2018-02-08T12:49:47.431Z,76.60
2018-02-08T12:54:17.058Z,70.57
2018-02-08T12:56:18.025Z,73.97
2018-02-08T13:01:17.037Z,71.33
2018-02-08T13:03:18.030Z,72.53
2018-02-08T13:05:19.014Z,73.77
2018-02-08T13:07:20.007Z,76.20
2018-02-08T13:09:20.983Z,70.65
2018-02-08T13:11:22.744Z,69.30
2018-02-08T13:13:47.171Z,68.80
2018-02-08T13:15:49.081Z,69.43
2018-02-08T13:18:17.183Z,70.33
2018-02-08T13:20:18.314Z,73.93
2018-02-08T13:22:19.382Z,77.90
2018-02-08T13:24:20.424Z,78.25
2018-02-08T13:26:21.410Z,72.47
2018-02-08T13:28:22.991Z,85.43
2018-02-08T13:30:24.003Z,76.03
2018-02-08T13:32:25.820Z,77.30
2018-02-08T13:34:26.848Z,77.90
2018-02-08T13:36:28.663Z,80.90
2018-02-08T13:38:29.727Z,75.73
2018-02-08T13:40:48.556Z,80.78
2018-02-08T13:42:49.559Z,72.57
2018-02-08T13:44:50.581Z,75.10
2018-02-08T13:46:51.672Z,76.77
2018-02-08T13:48:52.651Z,82.13
2018-02-08T13:54:05.678Z,76.20
2018-02-08T13:56:13.517Z,78.70
2018-02-08T13:58:17.300Z,81.63
2018-02-08T14:00:24.486Z,78.33
2018-02-08T14:02:25.486Z,90.53
2018-02-08T14:04:26.579Z,81.17
2018-02-08T14:06:27.625Z,80.07
2018-02-08T14:08:28.715Z,84.28
2018-02-08T14:10:29.720Z,84.73
2018-02-08T14:12:30.721Z,87.80
2018-02-08T14:14:31.768Z,86.55
2018-02-08T14:16:32.759Z,83.27
2018-02-08T14:18:33.724Z,76.90
2018-02-08T14:20:34.794Z,82.15
2018-02-08T14:25:03.806Z,86.68
2018-02-08T14:27:18.242Z,86.60
2018-02-08T14:29:19.251Z,80.63
2018-02-08T14:31:21.232Z,85.43
2018-02-08T14:33:22.227Z,87.60
2018-02-08T14:35:47.801Z,86.00
2018-02-08T14:37:48.788Z,84.53
2018-02-08T14:39:49.794Z,74.87
2018-02-08T14:41:50.771Z,91.80
2018-02-08T14:43:51.744Z,83.40
2018-02-08T14:45:52.752Z,75.33
2018-02-08T14:47:54.499Z,92.85
2018-02-08T14:49:56.255Z,93.50
2018-02-08T14:51:57.214Z,97.30
2018-02-08T14:53:58.362Z,96.30
2018-02-08T14:56:00.087Z,93.80
2018-02-08T14:58:01.054Z,96.68
2018-02-08T15:00:02.107Z,91.90
2018-02-08T15:02:03.093Z,90.13
2018-02-08T15:04:04.125Z,96.40
2018-02-08T15:06:05.133Z,95.80
2018-02-08T15:08:06.131Z,96.13
2018-02-08T15:10:07.153Z,92.53
2018-02-08T15:12:08.679Z,100.93
2018-02-08T15:14:09.737Z,91.03
2018-02-08T15:16:10.794Z,94.40
2018-02-08T15:18:19.400Z,94.30
2018-02-08T15:20:20.403Z,94.85
2018-02-08T15:22:22.444Z,101.80
2018-02-08T15:24:47.825Z,100.13
2018-02-08T15:26:50.578Z,109.72
2018-02-08T15:28:51.706Z,95.07
2018-02-08T15:30:52.817Z,98.23
2018-02-08T15:32:53.830Z,104.93
2018-02-08T15:34:54.899Z,94.70
2018-02-08T15:36:55.920Z,119.22
2018-02-08T15:38:57.028Z,107.50
2018-02-08T15:40:58.032Z,90.13
2018-02-08T15:42:59.096Z,106.70
2018-02-08T15:45:20.868Z,108.90
2018-02-08T15:47:21.927Z,101.90
2018-02-08T15:49:30.147Z,113.70
2018-02-08T15:51:31.319Z,106.27
2018-02-08T15:53:32.317Z,107.63
2018-02-08T15:55:33.484Z,110.43
2018-02-08T15:57:51.859Z,115.40
2018-02-08T15:59:52.900Z,109.32
2018-02-08T16:01:53.915Z,116.63
2018-02-08T16:03:54.874Z,99.83
2018-02-08T16:05:55.871Z,117.43
2018-02-08T16:07:56.890Z,113.43
2018-02-08T16:14:55.067Z,104.10
2018-02-08T16:16:56.272Z,116.60
2018-02-08T16:21:26.208Z,120.67
2018-02-08T16:23:51.483Z,129.50
2018-02-08T16:25:52.694Z,127.30
2018-02-08T16:27:54.425Z,122.00
2018-02-08T16:29:55.554Z,111.47
2018-02-08T16:31:56.532Z,104.73
2018-02-08T16:33:57.490Z,124.67
2018-02-08T16:35:58.623Z,109.33
2018-02-08T16:37:59.597Z,112.27
2018-02-08T16:40:01.305Z,124.27
2018-02-08T16:44:30.391Z,122.90
2018-02-08T16:46:31.443Z,123.72
2018-02-08T16:48:33.159Z,127.60
2018-02-08T16:50:34.135Z,124.50
2018-02-08T16:52:35.191Z,134.90
2018-02-08T16:54:38.192Z,149.43
2018-02-08T16:56:39.884Z,138.00
2018-02-08T17:01:29.327Z,142.13
2018-02-08T17:05:58.358Z,135.00
2018-02-08T17:08:19.583Z,134.90
2018-02-08T17:10:20.566Z,129.87
2018-02-08T17:12:21.587Z,128.27
2018-02-08T17:14:22.551Z,134.70
2018-02-08T17:16:24.259Z,138.10
2018-02-08T17:20:53.672Z,139.62
2018-02-08T17:22:54.631Z,135.93
2018-02-08T17:24:55.604Z,130.63
2018-02-08T17:26:56.571Z,133.30
2018-02-08T17:28:57.544Z,134.93
2018-02-08T17:30:59.251Z,138.48
2018-02-08T17:33:13.458Z,136.37
2018-02-08T17:35:14.647Z,132.83
2018-02-08T17:37:15.659Z,144.48
2018-02-08T17:39:16.778Z,145.20
2018-02-08T17:41:17.755Z,133.00
2018-02-08T17:43:19.500Z,126.00
2018-02-08T17:45:20.488Z,134.13
2018-02-08T17:47:24.575Z,139.02
2018-02-08T17:49:25.775Z,133.67
2018-02-08T17:53:54.818Z,129.27
2018-02-08T17:55:55.814Z,129.83
2018-02-08T17:57:57.527Z,135.80
2018-02-08T17:59:58.523Z,125.20
2018-02-08T18:02:00.268Z,136.23
2018-02-08T18:04:01.287Z,150.62
2018-02-08T18:06:02.278Z,137.17
2018-02-08T18:08:03.236Z,138.83
2018-02-08T18:10:04.958Z,134.90
2018-02-08T18:12:05.964Z,128.60
2018-02-08T18:14:06.936Z,138.23
2018-02-08T18:16:07.927Z,140.30
2018-02-08T18:18:08.892Z,127.07
2018-02-08T18:20:09.899Z,145.02
2018-02-08T18:22:10.988Z,134.63
2018-02-08T18:24:25.279Z,126.83
2018-02-08T18:26:26.279Z,131.17
2018-02-08T18:31:06.248Z,143.07
2018-02-08T18:33:07.323Z,140.00
2018-02-08T18:35:33.092Z,136.03
2018-02-08T18:37:37.741Z,127.00
2018-02-08T18:39:38.876Z,123.68
2018-02-08T18:41:39.969Z,139.20
2018-02-08T18:43:41.213Z,141.35
2018-02-08T18:45:42.428Z,125.57
2018-02-08T18:47:46.775Z,140.10
2018-02-08T18:49:47.966Z,144.80
2018-02-08T18:51:49.020Z,130.05
2018-02-08T18:53:51.910Z,126.30
2018-02-08T18:55:53.037Z,143.40
2018-02-08T18:57:54.110Z,128.82
2018-02-08T18:59:55.104Z,137.20
2018-02-08T19:01:56.124Z,134.37
2018-02-08T19:03:57.098Z,127.50
2018-02-08T19:05:58.029Z,134.10
2018-02-08T19:07:59.071Z,124.60
2018-02-08T19:10:08.669Z,142.18
2018-02-08T19:14:37.345Z,135.20
2018-02-08T19:16:38.333Z,149.73
2018-02-08T19:18:39.346Z,141.23
2018-02-08T19:20:40.312Z,138.18
2018-02-08T19:22:41.279Z,139.07
2018-02-08T19:24:42.232Z,133.30
2018-02-08T19:26:43.570Z,135.30
2018-02-08T19:28:44.640Z,138.35
2018-02-08T19:30:45.662Z,125.40
2018-02-08T19:32:46.623Z,117.10
2018-02-08T19:34:47.662Z,123.43
2018-02-08T19:36:48.715Z,131.43
2018-02-08T19:38:49.687Z,133.37
2018-02-08T19:40:50.650Z,136.17
2018-02-08T19:42:52.150Z,129.52
2018-02-08T19:44:53.111Z,126.68
2018-02-08T19:47:07.083Z,120.53
2018-02-08T20:16:20.167Z,140.12
2018-02-08T20:24:04.206Z,139.43
2018-02-08T20:26:15.553Z,130.48
2018-02-08T20:31:09.033Z,137.82
2018-02-08T20:33:10.143Z,143.00
2018-02-08T20:35:11.083Z,134.52
2018-02-08T20:39:50.141Z,149.27
2018-02-08T20:41:51.210Z,154.43
2018-02-08T20:43:52.239Z,133.15
2018-02-08T20:45:53.344Z,122.45
2018-02-08T20:47:54.524Z,136.48
2018-02-08T20:50:11.627Z,132.20
2018-02-08T20:54:51.289Z,135.57
2018-02-08T20:56:52.621Z,155.52
2018-02-08T20:58:53.594Z,154.85
2018-02-08T21:03:32.849Z,128.73
2018-02-08T21:05:33.940Z,142.27
2018-02-08T21:07:34.962Z,135.73
2018-02-08T21:12:04.038Z,126.53
2018-02-08T21:14:05.332Z,137.35
2018-02-08T21:16:06.338Z,152.35
2018-02-08T21:18:07.354Z,157.25
2018-02-08T21:20:08.629Z,155.60
2018-02-08T21:22:18.908Z,143.25
2018-02-08T21:24:19.888Z,152.25
2018-02-08T21:26:20.823Z,141.67
2018-02-08T21:28:21.800Z,153.80
2018-02-08T21:30:22.906Z,162.73
2018-02-08T21:32:23.906Z,149.23
2018-02-08T21:37:08.513Z,179.98
2018-02-08T21:41:37.310Z,166.37
2018-02-08T21:43:38.410Z,154.63
2018-02-08T21:45:39.391Z,148.80
2018-02-08T21:50:07.967Z,146.77
2018-02-08T21:52:09.015Z,161.90
2018-02-08T21:54:10.046Z,148.80
2018-02-08T22:01:37.101Z,149.02
2018-02-08T22:06:10.029Z,154.12
2018-02-08T22:10:48.021Z,141.95
2018-02-08T22:12:49.006Z,155.18
2018-02-08T22:17:28.141Z,163.00
2018-02-08T22:19:29.309Z,150.23
2018-02-08T22:21:30.379Z,149.52
2018-02-08T22:23:48.647Z,152.10
2018-02-08T22:25:49.761Z,146.80
2018-02-08T22:27:51.826Z,157.52
2018-02-08T22:30:10.736Z,156.18
2018-02-08T22:32:11.811Z,144.27
2018-02-08T22:34:13.007Z,152.18
2018-02-08T22:36:14.617Z,143.80
2018-02-08T22:38:41.184Z,156.37
2018-02-08T22:40:42.175Z,135.85
2018-02-08T22:45:21.410Z,166.02
2018-02-08T22:47:28.216Z,145.32
2018-02-08T22:49:29.293Z,138.85
2018-02-08T22:51:51.042Z,144.82
2018-02-08T22:56:50.170Z,145.20
2018-02-08T22:58:51.379Z,151.57
2018-02-08T23:03:20.142Z,153.82
2018-02-08T23:07:53.856Z,140.98
2018-02-08T23:09:54.864Z,141.55
2018-02-08T23:11:56.422Z,152.10
2018-02-08T23:16:51.045Z,148.05
2018-02-08T23:21:29.707Z,143.55
2018-02-08T23:23:30.751Z,171.35
2018-02-08T23:28:12.527Z,157.52
2018-02-08T23:30:14.571Z,151.27
2018-02-08T23:32:16.261Z,162.88
2018-02-08T23:34:17.358Z,157.48
2018-02-08T23:38:47.247Z,153.95
2018-02-08T23:43:24.331Z,164.80
2018-02-08T23:45:25.648Z,149.00
2018-02-08T23:47:41.796Z,134.93
2018-02-08T23:49:43.031Z,142.70
2018-02-08T23:52:10.755Z,148.13
2018-02-08T23:54:22.331Z,146.48
2018-02-08T23:56:24.104Z,181.40
